Time;durP1;ratioP1;P1;durP2;ratioP2;P2;SDS_P1;SDS_P2;PMS_P1;PMS_P2;Temp;Humidity;BMP_temperature;BMP_pressure;BME280_temperature;BME280_humidity;BME280_pressure;Samples;Min_cycle;Max_cycle;Signal;HPM_P1;HPM_P2
2022/05/09 00:00:08;;;;;;;0.00;0.00;;;;;;;;;;6255439;23;20220;-69
2022/05/09 00:02:34;;;;;;;0.10;0.10;;;;;;;;;;6213770;23;20185;-69
2022/05/09 00:05:00;;;;;;;0.10;0.10;;;;;;;;;;6255186;23;20182;-69
2022/05/09 00:07:28;;;;;;;0.10;0.10;;;;;;;;;;6239060;22;20207;-68
2022/05/09 00:09:54;;;;;;;0.10;0.10;;;;;;;;;;6254583;23;20248;-70
2022/05/09 00:12:21;;;;;;;0.10;0.10;;;;;;;;;;6238736;22;20293;-68
2022/05/09 00:14:47;;;;;;;0.10;0.10;;;;;;;;;;6255262;23;20179;-69
2022/05/09 00:17:13;;;;;;;0.10;0.10;;;;;;;;;;6238767;22;20531;-69
2022/05/09 00:19:39;;;;;;;0.10;0.10;;;;;;;;;;6255183;23;20504;-69
2022/05/09 00:22:06;;;;;;;0.00;0.00;;;;;;;;;;6239879;22;20286;-68
2022/05/09 00:24:33;;;;;;;0.10;0.10;;;;;;;;;;6257552;23;20216;-68
2022/05/09 00:26:59;;;;;;;0.00;0.00;;;;;;;;;;6241028;22;20210;-69
2022/05/09 00:29:26;;;;;;;0.10;0.10;;;;;;;;;;6257257;23;20238;-69
2022/05/09 00:31:55;;;;;;;0.10;0.10;;;;;;;;;;6240887;22;20289;-68
2022/05/09 00:34:22;;;;;;;0.00;0.00;;;;;;;;;;6257043;23;20163;-68
2022/05/09 00:36:48;;;;;;;0.10;0.10;;;;;;;;;;6241000;22;20208;-68
2022/05/09 00:39:15;;;;;;;0.07;0.07;;;;;;;;;;6256971;23;20179;-69
2022/05/09 00:41:44;;;;;;;0.10;0.10;;;;;;;;;;6240965;22;20211;-69
2022/05/09 00:44:12;;;;;;;0.00;0.00;;;;;;;;;;6257010;23;20392;-68
2022/05/09 00:46:39;;;;;;;0.10;0.10;;;;;;;;;;6240800;22;20210;-68
2022/05/09 00:49:07;;;;;;;0.10;0.10;;;;;;;;;;6256999;23;20180;-68
2022/05/09 00:51:34;;;;;;;0.07;0.07;;;;;;;;;;6241009;22;20455;-67
2022/05/09 00:54:02;;;;;;;0.10;0.10;;;;;;;;;;6256542;23;20182;-68
2022/05/09 00:56:30;;;;;;;0.10;0.10;;;;;;;;;;6240899;22;20307;-68
2022/05/09 00:58:59;;;;;;;0.00;0.00;;;;;;;;;;6256583;23;20170;-69
2022/05/09 01:01:26;;;;;;;0.10;0.10;;;;;;;;;;6240886;22;20225;-69
2022/05/09 01:03:54;;;;;;;0.10;0.10;;;;;;;;;;6256869;23;20181;-68
2022/05/09 01:06:21;;;;;;;0.10;0.10;;;;;;;;;;6241252;22;20210;-69
2022/05/09 01:08:47;;;;;;;0.10;0.10;;;;;;;;;;6256670;23;20233;-69
2022/05/09 01:11:16;;;;;;;0.10;0.10;;;;;;;;;;6240765;22;20296;-69
2022/05/09 01:13:45;;;;;;;0.00;0.00;;;;;;;;;;6256021;23;20182;-68
2022/05/09 01:16:13;;;;;;;0.10;0.10;;;;;;;;;;6240476;22;20220;-68
2022/05/09 01:18:39;;;;;;;0.10;0.10;;;;;;;;;;6255961;23;20202;-69
2022/05/09 01:21:27;;;;;;;0.10;0.10;;;;;;;;;;6240994;22;20217;-68
2022/05/09 01:23:54;;;;;;;0.10;0.10;;;;;;;;;;6256453;23;20170;-67
2022/05/09 01:26:20;;;;;;;0.10;0.10;;;;;;;;;;6240839;22;20261;-67
2022/05/09 01:28:47;;;;;;;0.03;0.03;;;;;;;;;;6256408;23;20374;-69
2022/05/09 01:31:15;;;;;;;0.00;0.00;;;;;;;;;;6240777;22;20435;-68
2022/05/09 01:33:43;;;;;;;0.10;0.10;;;;;;;;;;6255595;23;20182;-69
2022/05/09 01:36:13;;;;;;;0.10;0.10;;;;;;;;;;6240577;22;20257;-69
2022/05/09 01:38:40;;;;;;;0.00;0.00;;;;;;;;;;6255987;23;20567;-68
2022/05/09 01:41:06;;;;;;;0.10;0.10;;;;;;;;;;6240963;22;20214;-68
2022/05/09 01:43:34;;;;;;;0.10;0.10;;;;;;;;;;6256063;23;20166;-68
2022/05/09 01:46:01;;;;;;;0.10;0.10;;;;;;;;;;6240849;22;20220;-69
2022/05/09 01:51:12;;;;;;;0.10;0.10;;;;;;;;;;6240929;22;20285;-68
2022/05/09 01:53:39;;;;;;;0.10;0.10;;;;;;;;;;6255693;23;20171;-68
2022/05/09 01:56:05;;;;;;;0.10;0.10;;;;;;;;;;6240458;22;20265;-68
2022/05/09 01:58:32;;;;;;;0.10;0.10;;;;;;;;;;6255767;23;20245;-69
2022/05/09 02:00:58;;;;;;;0.10;0.10;;;;;;;;;;6240818;22;20219;-68
2022/05/09 02:03:24;;;;;;;0.10;0.10;;;;;;;;;;6255941;23;20186;-68
2022/05/09 02:05:51;;;;;;;0.10;0.10;;;;;;;;;;6240855;22;20537;-69
2022/05/09 02:08:20;;;;;;;0.10;0.10;;;;;;;;;;6255763;23;20461;-68
2022/05/09 02:10:46;;;;;;;0.10;0.10;;;;;;;;;;6240698;22;20243;-69
2022/05/09 02:13:12;;;;;;;0.10;0.10;;;;;;;;;;6255594;23;20186;-68
2022/05/09 02:15:38;;;;;;;0.10;0.10;;;;;;;;;;6241008;22;20222;-68
2022/05/09 02:18:05;;;;;;;0.10;0.10;;;;;;;;;;6255278;23;20206;-68
2022/05/09 02:20:31;;;;;;;0.10;0.10;;;;;;;;;;6240852;22;20214;-68
2022/05/09 02:22:57;;;;;;;0.00;0.00;;;;;;;;;;6255243;23;20356;-69
2022/05/09 02:25:29;;;;;;;0.10;0.10;;;;;;;;;;6241027;22;20359;-68
2022/05/09 02:27:56;;;;;;;0.10;0.10;;;;;;;;;;6254810;23;20206;-68
2022/05/09 02:30:22;;;;;;;0.10;0.10;;;;;;;;;;6240954;22;20225;-69
2022/05/09 02:32:48;;;;;;;0.10;0.10;;;;;;;;;;6255134;23;20186;-69
2022/05/09 02:35:15;;;;;;;0.07;0.07;;;;;;;;;;6241079;22;20181;-68
2022/05/09 02:37:41;;;;;;;0.00;0.00;;;;;;;;;;6254640;23;20199;-68
2022/05/09 02:40:08;;;;;;;0.07;0.07;;;;;;;;;;6240993;22;20204;-70
2022/05/09 02:42:35;;;;;;;0.10;0.10;;;;;;;;;;6254644;23;20241;-69
2022/05/09 02:45:02;;;;;;;0.10;0.10;;;;;;;;;;6256117;23;20242;-68
2022/05/09 02:47:29;;;;;;;0.10;0.10;;;;;;;;;;6239562;22;20215;-68
2022/05/09 02:49:55;;;;;;;0.10;0.10;;;;;;;;;;6256320;23;20181;-68
2022/05/09 02:52:21;;;;;;;0.10;0.10;;;;;;;;;;6239586;22;20214;-68
2022/05/09 02:54:47;;;;;;;0.10;0.10;;;;;;;;;;6256214;23;20210;-67
2022/05/09 02:57:14;;;;;;;0.00;0.00;;;;;;;;;;6239361;22;20240;-69
2022/05/09 02:59:42;;;;;;;0.10;0.10;;;;;;;;;;6256145;23;20188;-68
2022/05/09 03:02:09;;;;;;;0.10;0.10;;;;;;;;;;6239598;22;20218;-69
2022/05/09 03:04:41;;;;;;;0.00;0.00;;;;;;;;;;6256029;23;20179;-69
2022/05/09 03:07:07;;;;;;;0.10;0.10;;;;;;;;;;6239558;22;20207;-67
2022/05/09 03:09:33;;;;;;;0.10;0.10;;;;;;;;;;6255691;23;20409;-67
2022/05/09 03:11:59;;;;;;;0.10;0.10;;;;;;;;;;6239600;22;20224;-67
2022/05/09 03:14:26;;;;;;;0.10;0.10;;;;;;;;;;6255521;23;20187;-66
2022/05/09 03:16:53;;;;;;;0.10;0.10;;;;;;;;;;6239405;22;20213;-67
2022/05/09 03:19:19;;;;;;;0.10;0.10;;;;;;;;;;6255796;23;20248;-67
2022/05/09 03:21:47;;;;;;;0.10;0.10;;;;;;;;;;6239628;22;20446;-67
2022/05/09 03:24:14;;;;;;;0.10;0.10;;;;;;;;;;6255713;23;20188;-68
2022/05/09 03:26:40;;;;;;;0.10;0.10;;;;;;;;;;6239546;22;20220;-67
2022/05/09 03:29:06;;;;;;;0.10;0.10;;;;;;;;;;6255428;23;20178;-67
2022/05/09 03:31:33;;;;;;;0.10;0.10;;;;;;;;;;6239825;22;20479;-67
2022/05/09 03:34:01;;;;;;;0.10;0.10;;;;;;;;;;6254976;23;20179;-67
2022/05/09 03:36:27;;;;;;;0.10;0.10;;;;;;;;;;6239435;22;20213;-66
2022/05/09 03:38:53;;;;;;;0.10;0.10;;;;;;;;;;6255098;23;20200;-66
2022/05/09 03:41:20;;;;;;;0.10;0.10;;;;;;;;;;6239614;22;20336;-66
2022/05/09 03:43:46;;;;;;;0.10;0.10;;;;;;;;;;6254893;23;20500;-67
2022/05/09 03:46:13;;;;;;;0.10;0.10;;;;;;;;;;6239698;22;20241;-66
2022/05/09 03:48:39;;;;;;;0.10;0.10;;;;;;;;;;6255095;23;20175;-67
2022/05/09 03:51:07;;;;;;;0.10;0.10;;;;;;;;;;6239759;22;20219;-67
2022/05/09 03:53:33;;;;;;;0.10;0.10;;;;;;;;;;6255108;23;20226;-68
2022/05/09 03:56:00;;;;;;;0.10;0.10;;;;;;;;;;6239634;22;20219;-67
2022/05/09 03:58:27;;;;;;;0.10;0.10;;;;;;;;;;6254816;23;20199;-68
2022/05/09 04:00:53;;;;;;;0.10;0.10;;;;;;;;;;6239579;22;20308;-67
2022/05/09 04:03:20;;;;;;;0.10;0.10;;;;;;;;;;6254519;23;20183;-68
2022/05/09 04:05:46;;;;;;;0.10;0.10;;;;;;;;;;6239615;22;20258;-67
2022/05/09 04:08:16;;;;;;;0.10;0.10;;;;;;;;;;6254827;23;20246;-68
2022/05/09 04:10:43;;;;;;;0.10;0.10;;;;;;;;;;6239661;22;20233;-66
2022/05/09 04:13:09;;;;;;;0.10;0.10;;;;;;;;;;6254291;23;20225;-66
2022/05/09 04:18:21;;;;;;;0.10;0.10;;;;;;;;;;6254377;23;20197;-67
2022/05/09 04:20:48;;;;;;;0.10;0.10;;;;;;;;;;6239747;22;20211;-66
2022/05/09 04:23:16;;;;;;;0.10;0.10;;;;;;;;;;6254042;23;20180;-66
2022/05/09 04:25:43;;;;;;;0.10;0.10;;;;;;;;;;6239825;22;20257;-66
2022/05/09 04:28:10;;;;;;;0.10;0.10;;;;;;;;;;6254475;23;20159;-67
2022/05/09 04:30:38;;;;;;;0.10;0.10;;;;;;;;;;6239603;22;20241;-66
2022/05/09 04:33:05;;;;;;;0.10;0.10;;;;;;;;;;6254083;23;20225;-67
2022/05/09 04:35:31;;;;;;;0.10;0.10;;;;;;;;;;6240256;22;20242;-66
2022/05/09 04:37:58;;;;;;;0.10;0.10;;;;;;;;;;6253935;23;20222;-67
2022/05/09 04:40:27;;;;;;;0.10;0.10;;;;;;;;;;6239737;22;20220;-67
2022/05/09 04:42:55;;;;;;;0.10;0.10;;;;;;;;;;6254294;23;20543;-68
2022/05/09 04:45:21;;;;;;;0.10;0.10;;;;;;;;;;6240393;22;20187;-65
2022/05/09 04:47:49;;;;;;;0.10;0.10;;;;;;;;;;6254175;23;20239;-67
2022/05/09 04:50:16;;;;;;;0.10;0.10;;;;;;;;;;6239815;22;20231;-65
2022/05/09 04:52:42;;;;;;;0.10;0.10;;;;;;;;;;6253929;22;20176;-66
2022/05/09 04:55:08;;;;;;;0.10;0.10;;;;;;;;;;6240206;22;20190;-66
2022/05/09 04:57:36;;;;;;;0.10;0.10;;;;;;;;;;6253672;22;20171;-66
2022/05/09 05:00:03;;;;;;;0.10;0.10;;;;;;;;;;6255080;23;20210;-66
2022/05/09 05:02:30;;;;;;;0.10;0.10;;;;;;;;;;6213056;23;20498;-66
2022/05/09 05:04:56;;;;;;;0.10;0.10;;;;;;;;;;6255147;23;20181;-67
2022/05/09 05:07:22;;;;;;;0.10;0.10;;;;;;;;;;6239373;22;20314;-68
2022/05/09 05:09:49;;;;;;;0.10;0.10;;;;;;;;;;6256744;23;20195;-68
2022/05/09 05:12:15;;;;;;;0.10;0.10;;;;;;;;;;6240536;22;20234;-67
2022/05/09 05:14:42;;;;;;;0.10;0.10;;;;;;;;;;6256740;23;20229;-67
2022/05/09 05:17:09;;;;;;;0.10;0.10;;;;;;;;;;6240523;22;20218;-67
2022/05/09 05:19:36;;;;;;;0.10;0.10;;;;;;;;;;6256193;23;20237;-68
2022/05/09 05:22:04;;;;;;;0.10;0.10;;;;;;;;;;6240607;22;20219;-67
2022/05/09 05:24:33;;;;;;;0.10;0.10;;;;;;;;;;6256975;23;20375;-67
2022/05/09 05:26:59;;;;;;;0.10;0.10;;;;;;;;;;6240406;22;20210;-67
2022/05/09 05:29:25;;;;;;;0.10;0.10;;;;;;;;;;6257009;23;20186;-67
2022/05/09 05:31:53;;;;;;;0.10;0.10;;;;;;;;;;6240500;22;20279;-67
2022/05/09 05:34:19;;;;;;;0.10;0.10;;;;;;;;;;6256764;23;20190;-66
2022/05/09 05:36:46;;;;;;;0.10;0.10;;;;;;;;;;6240573;22;20211;-67
2022/05/09 05:39:15;;;;;;;0.10;0.10;;;;;;;;;;6256181;23;20290;-68
2022/05/09 05:41:41;;;;;;;0.10;0.10;;;;;;;;;;6240737;22;20277;-68
2022/05/09 05:44:11;;;;;;;0.10;0.10;;;;;;;;;;6256602;23;20179;-67
2022/05/09 05:46:37;;;;;;;0.10;0.10;;;;;;;;;;6240643;22;20425;-68
2022/05/09 05:49:05;;;;;;;0.10;0.10;;;;;;;;;;6256722;23;20222;-67
2022/05/09 05:51:31;;;;;;;0.10;0.10;;;;;;;;;;6240547;22;20285;-68
2022/05/09 05:53:58;;;;;;;0.10;0.10;;;;;;;;;;6256562;23;20235;-67
2022/05/09 05:56:24;;;;;;;0.10;0.10;;;;;;;;;;6240738;22;20222;-67
2022/05/09 05:58:51;;;;;;;0.10;0.10;;;;;;;;;;6256024;23;20419;-67
2022/05/09 06:01:18;;;;;;;0.10;0.10;;;;;;;;;;6240724;22;20245;-68
2022/05/09 06:03:45;;;;;;;0.10;0.10;;;;;;;;;;6255707;22;20183;-67
2022/05/09 06:06:18;;;;;;;0.10;0.10;;;;;;;;;;6240766;22;20276;-67
2022/05/09 06:08:45;;;;;;;0.10;0.10;;;;;;;;;;6255998;23;20158;-67
2022/05/09 06:11:13;;;;;;;0.10;0.10;;;;;;;;;;6240427;22;20276;-66
2022/05/09 06:13:39;;;;;;;0.10;0.10;;;;;;;;;;6255894;23;20189;-71
2022/05/09 06:16:06;;;;;;;0.10;0.10;;;;;;;;;;6240437;22;20212;-69
2022/05/09 06:18:32;;;;;;;0.10;0.10;;;;;;;;;;6254925;23;20198;-69
2022/05/09 06:20:58;;;;;;;0.10;0.10;;;;;;;;;;6240685;22;20310;-67
2022/05/09 06:23:27;;;;;;;0.10;0.10;;;;;;;;;;6255902;23;20186;-69
2022/05/09 06:25:54;;;;;;;0.10;0.10;;;;;;;;;;6240744;22;20216;-70
2022/05/09 06:28:22;;;;;;;0.10;0.10;;;;;;;;;;6255831;23;20229;-69
2022/05/09 06:30:49;;;;;;;0.00;0.00;;;;;;;;;;6240730;22;20218;-71
2022/05/09 06:33:22;;;;;;;0.10;0.10;;;;;;;;;;6255473;23;20183;-69
2022/05/09 06:35:51;;;;;;;0.10;0.10;;;;;;;;;;6241192;22;20283;-69
2022/05/09 06:38:18;;;;;;;0.10;0.10;;;;;;;;;;6255660;23;20197;-70
2022/05/09 06:40:46;;;;;;;0.10;0.10;;;;;;;;;;6240121;22;20217;-72
2022/05/09 06:43:13;;;;;;;0.10;0.10;;;;;;;;;;6255166;23;20492;-70
2022/05/09 06:45:49;;;;;;;0.10;0.10;;;;;;;;;;6240581;22;20213;-69
2022/05/09 06:48:16;;;;;;;0.03;0.03;;;;;;;;;;6255302;22;20222;-67
2022/05/09 06:50:44;;;;;;;0.10;0.10;;;;;;;;;;6240866;22;20211;-71
2022/05/09 06:53:12;;;;;;;0.00;0.00;;;;;;;;;;6255264;23;20175;-68
2022/05/09 06:55:39;;;;;;;0.10;0.10;;;;;;;;;;6240863;22;20217;-68
2022/05/09 06:58:09;;;;;;;0.10;0.10;;;;;;;;;;6255308;23;20170;-68
2022/05/09 07:00:36;;;;;;;0.10;0.10;;;;;;;;;;6241177;22;20230;-66
2022/05/09 07:03:06;;;;;;;0.00;0.00;;;;;;;;;;6255038;22;20189;-67
2022/05/09 07:05:32;;;;;;;0.10;0.10;;;;;;;;;;6240759;22;20213;-68
2022/05/09 07:07:59;;;;;;;0.10;0.10;;;;;;;;;;6255445;23;20190;-68
2022/05/09 07:10:27;;;;;;;0.10;0.10;;;;;;;;;;6240679;22;20190;-66
2022/05/09 07:12:55;;;;;;;0.10;0.10;;;;;;;;;;6254718;23;20228;-68
2022/05/09 07:15:24;;;;;;;0.10;0.10;;;;;;;;;;6241138;22;20237;-66
2022/05/09 07:17:51;;;;;;;0.10;0.10;;;;;;;;;;6255212;23;20190;-66
2022/05/09 07:20:26;;;;;;;0.10;0.10;;;;;;;;;;6240808;22;20202;-66
2022/05/09 07:22:53;;;;;;;0.10;0.10;;;;;;;;;;6254707;23;20181;-67
2022/05/09 07:25:20;;;;;;;0.10;0.10;;;;;;;;;;6239819;22;20192;-66
2022/05/09 07:27:46;;;;;;;0.10;0.10;;;;;;;;;;6254983;22;20176;-65
2022/05/09 07:30:14;;;;;;;0.00;0.00;;;;;;;;;;6240818;22;20202;-68
2022/05/09 07:32:42;;;;;;;0.10;0.10;;;;;;;;;;6255077;23;20188;-66
2022/05/09 07:35:10;;;;;;;0.10;0.10;;;;;;;;;;6255885;23;20418;-68
2022/05/09 07:37:37;;;;;;;0.10;0.10;;;;;;;;;;6239751;22;20218;-68
2022/05/09 07:40:03;;;;;;;0.10;0.10;;;;;;;;;;6255594;23;20229;-70
2022/05/09 07:42:30;;;;;;;0.10;0.10;;;;;;;;;;6238451;22;20512;-68
2022/05/09 07:44:57;;;;;;;0.10;0.10;;;;;;;;;;6255668;23;20231;-67
2022/05/09 07:47:26;;;;;;;0.10;0.10;;;;;;;;;;6239446;22;20212;-68
2022/05/09 07:49:54;;;;;;;0.00;0.00;;;;;;;;;;6255588;23;20203;-67
2022/05/09 07:52:22;;;;;;;0.10;0.10;;;;;;;;;;6239357;22;20282;-67
2022/05/09 07:54:49;;;;;;;0.03;0.03;;;;;;;;;;6255696;23;20422;-68
2022/05/09 07:57:16;;;;;;;0.10;0.10;;;;;;;;;;6239423;22;20212;-66
2022/05/09 07:59:42;;;;;;;0.00;0.00;;;;;;;;;;6256104;23;20224;-66
2022/05/09 08:02:09;;;;;;;0.10;0.10;;;;;;;;;;6239298;22;20258;-67
2022/05/09 08:04:35;;;;;;;0.10;0.10;;;;;;;;;;6255204;23;20187;-69
2022/05/09 08:07:03;;;;;;;0.00;0.00;;;;;;;;;;6239613;22;20270;-67
2022/05/09 08:09:30;;;;;;;0.10;0.10;;;;;;;;;;6255639;23;20381;-67
2022/05/09 08:11:58;;;;;;;0.10;0.10;;;;;;;;;;6239274;22;20260;-68
2022/05/09 08:14:24;;;;;;;0.10;0.10;;;;;;;;;;6255517;23;20377;-67
2022/05/09 08:16:51;;;;;;;0.00;0.00;;;;;;;;;;6239462;22;20212;-67
2022/05/09 08:19:17;;;;;;;0.03;0.03;;;;;;;;;;6255153;22;20208;-67
2022/05/09 08:21:47;;;;;;;0.10;0.10;;;;;;;;;;6239315;22;20213;-68
2022/05/09 08:24:15;;;;;;;0.00;0.00;;;;;;;;;;6255405;22;20192;-67
2022/05/09 08:26:41;;;;;;;0.10;0.10;;;;;;;;;;6239385;22;20219;-68
2022/05/09 08:29:08;;;;;;;0.10;0.10;;;;;;;;;;6255583;23;20177;-68
2022/05/09 08:31:36;;;;;;;0.10;0.10;;;;;;;;;;6240113;22;20221;-66
2022/05/09 08:34:02;;;;;;;0.10;0.10;;;;;;;;;;6255188;22;20185;-67
2022/05/09 08:36:48;;;;;;;0.10;0.10;;;;;;;;;;6239880;22;20585;-66
2022/05/09 08:39:16;;;;;;;0.10;0.10;;;;;;;;;;6255311;23;20190;-66
2022/05/09 08:41:51;;;;;;;0.03;0.03;;;;;;;;;;6239528;22;20259;-66
2022/05/09 08:44:21;;;;;;;0.10;0.10;;;;;;;;;;6257951;23;20176;-67
2022/05/09 08:46:54;;;;;;;0.00;0.00;;;;;;;;;;6241851;22;20539;-67
2022/05/09 08:49:31;;;;;;;0.10;0.10;;;;;;;;;;6257302;23;20190;-67
2022/05/09 08:52:01;;;;;;;0.00;0.00;;;;;;;;;;6240450;22;20276;-67
2022/05/09 08:54:29;;;;;;;0.10;0.10;;;;;;;;;;6257921;23;20346;-67
2022/05/09 08:56:58;;;;;;;0.10;0.10;;;;;;;;;;6241418;22;20235;-66
2022/05/09 08:59:27;;;;;;;0.10;0.10;;;;;;;;;;6257423;23;20201;-67
2022/05/09 09:01:57;;;;;;;0.10;0.10;;;;;;;;;;6241243;22;20211;-68
2022/05/09 09:04:24;;;;;;;0.00;0.00;;;;;;;;;;6257373;23;20247;-69
2022/05/09 09:07:08;;;;;;;0.05;0.05;;;;;;;;;;6241359;22;20238;-67
2022/05/09 09:09:48;;;;;;;0.00;0.00;;;;;;;;;;6256554;23;20231;-67
2022/05/09 09:12:20;;;;;;;0.10;0.10;;;;;;;;;;6241313;22;20356;-67
2022/05/09 09:14:49;;;;;;;0.00;0.00;;;;;;;;;;6257451;23;20172;-69
2022/05/09 09:17:24;;;;;;;0.00;0.00;;;;;;;;;;6241383;22;20244;-68
2022/05/09 09:20:03;;;;;;;0.10;0.10;;;;;;;;;;6257162;23;20195;-68
2022/05/09 09:22:36;;;;;;;0.10;0.10;;;;;;;;;;6241520;22;20210;-67
2022/05/09 09:25:13;;;;;;;0.00;0.00;;;;;;;;;;6257457;23;20196;-70
2022/05/09 09:27:42;;;;;;;0.10;0.10;;;;;;;;;;6254528;23;20222;-67
2022/05/09 09:30:11;;;;;;;0.03;0.03;;;;;;;;;;6242054;22;20191;-69
2022/05/09 09:32:42;;;;;;;0.10;0.10;;;;;;;;;;6256099;23;20179;-66
2022/05/09 09:35:14;;;;;;;0.08;0.08;;;;;;;;;;6240766;23;20160;-66
2022/05/09 09:37:45;;;;;;;0.00;0.00;;;;;;;;;;6256182;23;20162;-65
2022/05/09 09:40:12;;;;;;;0.00;0.00;;;;;;;;;;6242167;22;20190;-66
2022/05/09 09:42:42;;;;;;;0.10;0.10;;;;;;;;;;6255793;23;20484;-68
2022/05/09 09:45:20;;;;;;;0.00;0.00;;;;;;;;;;6248491;23;20511;-68
2022/05/09 09:48:06;;;;;;;0.00;0.00;;;;;;;;;;6257175;23;20193;-66
2022/05/09 09:50:32;;;;;;;0.00;0.00;;;;;;;;;;6242371;22;20399;-66
2022/05/09 09:53:00;;;;;;;0.00;0.00;;;;;;;;;;6255712;23;20189;-66
2022/05/09 09:55:30;;;;;;;0.00;0.00;;;;;;;;;;6241226;22;20221;-67
2022/05/09 09:57:57;;;;;;;0.00;0.00;;;;;;;;;;6256326;23;20199;-67
2022/05/09 10:00:25;;;;;;;0.00;0.00;;;;;;;;;;6242069;22;20221;-67
2022/05/09 10:02:53;;;;;;;0.00;0.00;;;;;;;;;;6255617;23;20177;-67
2022/05/09 10:05:21;;;;;;;0.00;0.00;;;;;;;;;;6241961;22;20407;-67
2022/05/09 10:07:47;;;;;;;0.00;0.00;;;;;;;;;;6255786;23;20467;-67
2022/05/09 10:10:15;;;;;;;0.00;0.00;;;;;;;;;;6241865;22;20198;-65
2022/05/09 10:12:48;;;;;;;0.10;0.10;;;;;;;;;;6255542;23;20232;-67
2022/05/09 10:15:25;;;;;;;0.05;0.05;;;;;;;;;;6242406;22;20356;-67
2022/05/09 10:17:52;;;;;;;0.00;0.00;;;;;;;;;;6256107;23;20498;-67
2022/05/09 10:20:27;;;;;;;0.00;0.00;;;;;;;;;;6240841;22;20392;-67
2022/05/09 10:25:56;;;;;;;0.00;0.00;;;;;;;;;;6241345;22;20553;-80
2022/05/09 10:28:32;;;;;;;0.00;0.00;;;;;;;;;;6256902;23;20187;-79
2022/05/09 10:31:02;;;;;;;0.00;0.00;;;;;;;;;;6241279;22;20214;-81
2022/05/09 10:33:38;;;;;;;0.00;0.00;;;;;;;;;;6256544;23;20194;-76
2022/05/09 10:36:11;;;;;;;0.10;0.10;;;;;;;;;;6241554;22;20305;-74
2022/05/09 10:38:41;;;;;;;0.00;0.00;;;;;;;;;;6256363;23;20174;-76
2022/05/09 10:41:15;;;;;;;0.00;0.00;;;;;;;;;;6208007;23;20283;-76
2022/05/09 10:43:59;;;;;;;0.00;0.00;;;;;;;;;;6162296;23;20408;-77
2022/05/09 10:46:35;;;;;;;0.00;0.00;;;;;;;;;;6148186;23;20216;-80
2022/05/09 10:49:09;;;;;;;0.08;0.08;;;;;;;;;;6163746;23;20178;-79
2022/05/09 10:51:44;;;;;;;0.00;0.00;;;;;;;;;;6149148;23;20290;-79
2022/05/09 10:54:14;;;;;;;0.00;0.00;;;;;;;;;;6164339;23;20328;-80
2022/05/09 10:56:44;;;;;;;0.00;0.00;;;;;;;;;;6130800;23;20234;-77
2022/05/09 10:59:16;;;;;;;0.00;0.00;;;;;;;;;;6134107;23;20235;-72
2022/05/09 11:01:45;;;;;;;0.00;0.00;;;;;;;;;;6119635;23;20583;-73
2022/05/09 11:04:12;;;;;;;0.00;0.00;;;;;;;;;;6133964;23;20369;-72
2022/05/09 11:06:44;;;;;;;0.00;0.00;;;;;;;;;;6119584;23;20263;-73
2022/05/09 11:09:19;;;;;;;0.10;0.10;;;;;;;;;;6158429;23;20193;-67
2022/05/09 11:11:56;;;;;;;0.00;0.00;;;;;;;;;;6169023;23;20274;-68
2022/05/09 11:14:27;;;;;;;0.00;0.00;;;;;;;;;;6165711;23;20181;-68
2022/05/09 11:17:08;;;;;;;0.00;0.00;;;;;;;;;;6165275;23;20215;-66
2022/05/09 11:19:45;;;;;;;0.00;0.00;;;;;;;;;;6165706;23;20496;-71
2022/05/09 11:22:16;;;;;;;0.00;0.00;;;;;;;;;;6201995;23;20459;-67
2022/05/09 11:25:01;;;;;;;0.00;0.00;;;;;;;;;;6255405;23;20173;-69
2022/05/09 11:27:34;;;;;;;0.00;0.00;;;;;;;;;;6238697;23;20230;-67
2022/05/09 11:30:12;;;;;;;0.00;0.00;;;;;;;;;;6255192;22;20178;-67
2022/05/09 11:32:41;;;;;;;0.10;0.10;;;;;;;;;;6213724;23;20202;-67
2022/05/09 11:35:25;;;;;;;0.00;0.00;;;;;;;;;;6240437;22;20242;-69
2022/05/09 11:37:59;;;;;;;0.00;0.00;;;;;;;;;;6254457;23;20229;-67
2022/05/09 11:40:28;;;;;;;0.00;0.00;;;;;;;;;;6240344;22;20231;-67
2022/05/09 11:45:57;;;;;;;0.00;0.00;;;;;;;;;;6240049;22;20222;-67
2022/05/09 11:48:27;;;;;;;0.00;0.00;;;;;;;;;;6254675;22;20416;-66
2022/05/09 11:51:02;;;;;;;0.10;0.10;;;;;;;;;;6239770;22;20221;-68
2022/05/09 11:53:31;;;;;;;0.00;0.00;;;;;;;;;;6254602;22;20194;-68
2022/05/09 11:56:05;;;;;;;0.00;0.00;;;;;;;;;;6239637;22;20220;-68
2022/05/09 11:58:32;;;;;;;0.00;0.00;;;;;;;;;;6254321;22;20496;-65
2022/05/09 12:01:02;;;;;;;0.05;0.05;;;;;;;;;;6231396;23;20212;-67
2022/05/09 12:03:58;;;;;;;0.00;0.00;;;;;;;;;;6254985;23;20181;-67
2022/05/09 12:06:29;;;;;;;0.00;0.00;;;;;;;;;;6239070;22;20211;-67
2022/05/09 12:08:56;;;;;;;0.00;0.00;;;;;;;;;;6254681;22;20295;-68
2022/05/09 12:11:29;;;;;;;0.00;0.00;;;;;;;;;;6239350;22;20281;-69
2022/05/09 12:13:57;;;;;;;0.00;0.00;;;;;;;;;;6254658;23;20497;-67
2022/05/09 12:16:44;;;;;;;0.00;0.00;;;;;;;;;;6239243;22;20593;-67
2022/05/09 12:19:16;;;;;;;0.00;0.00;;;;;;;;;;6255014;23;20183;-68
2022/05/09 12:21:42;;;;;;;0.00;0.00;;;;;;;;;;6239276;22;20214;-67
2022/05/09 12:24:11;;;;;;;0.00;0.00;;;;;;;;;;6254948;23;20202;-67
2022/05/09 12:26:39;;;;;;;0.00;0.00;;;;;;;;;;6239291;22;20211;-66
2022/05/09 12:29:28;;;;;;;0.08;0.08;;;;;;;;;;6255406;23;20227;-66
2022/05/09 12:31:57;;;;;;;0.00;0.00;;;;;;;;;;6238623;22;20292;-67
2022/05/09 12:34:26;;;;;;;0.00;0.00;;;;;;;;;;6255273;23;20361;-68
2022/05/09 12:36:52;;;;;;;0.00;0.00;;;;;;;;;;6238897;22;20261;-66
2022/05/09 12:39:25;;;;;;;0.00;0.00;;;;;;;;;;6255515;23;20183;-67
2022/05/09 12:41:53;;;;;;;0.00;0.00;;;;;;;;;;6239063;22;20211;-65
2022/05/09 12:44:21;;;;;;;0.00;0.00;;;;;;;;;;6254896;23;20259;-67
2022/05/09 12:46:51;;;;;;;0.00;0.00;;;;;;;;;;6238781;22;20215;-67
2022/05/09 12:49:20;;;;;;;0.00;0.00;;;;;;;;;;6255272;23;20225;-67
2022/05/09 12:51:49;;;;;;;0.00;0.00;;;;;;;;;;6238900;22;20446;-68
2022/05/09 12:54:17;;;;;;;0.00;0.00;;;;;;;;;;6255332;23;20182;-66
2022/05/09 12:56:47;;;;;;;0.10;0.10;;;;;;;;;;6239064;22;20316;-67
2022/05/09 12:59:14;;;;;;;0.00;0.00;;;;;;;;;;6255176;23;20204;-68
2022/05/09 13:01:41;;;;;;;0.00;0.00;;;;;;;;;;6238842;22;20214;-68
2022/05/09 13:04:18;;;;;;;0.00;0.00;;;;;;;;;;6255181;23;20327;-67
2022/05/09 13:06:47;;;;;;;0.00;0.00;;;;;;;;;;6239036;22;20214;-68
2022/05/09 13:09:15;;;;;;;0.00;0.00;;;;;;;;;;6254911;23;20183;-67
2022/05/09 13:11:42;;;;;;;0.00;0.00;;;;;;;;;;6238834;22;20218;-68
2022/05/09 13:14:10;;;;;;;0.00;0.00;;;;;;;;;;6254940;23;20189;-67
2022/05/09 13:16:37;;;;;;;0.00;0.00;;;;;;;;;;6239002;22;20544;-68
2022/05/09 13:19:04;;;;;;;0.00;0.00;;;;;;;;;;6255010;23;20202;-67
2022/05/09 13:21:34;;;;;;;0.00;0.00;;;;;;;;;;6238849;22;20229;-68
2022/05/09 13:24:03;;;;;;;0.00;0.00;;;;;;;;;;6254440;23;20166;-68
2022/05/09 13:26:31;;;;;;;0.00;0.00;;;;;;;;;;6238772;22;20211;-68
2022/05/09 13:28:58;;;;;;;0.10;0.10;;;;;;;;;;6254786;23;20213;-67
2022/05/09 13:31:25;;;;;;;0.00;0.00;;;;;;;;;;6240665;22;20257;-68
2022/05/09 13:33:51;;;;;;;0.00;0.00;;;;;;;;;;6256068;23;20246;-67
2022/05/09 13:36:21;;;;;;;0.00;0.00;;;;;;;;;;6240605;22;20241;-67
2022/05/09 13:38:47;;;;;;;0.00;0.00;;;;;;;;;;6256345;23;20183;-68
2022/05/09 13:41:18;;;;;;;0.00;0.00;;;;;;;;;;6240872;22;20213;-67
2022/05/09 13:43:46;;;;;;;0.00;0.00;;;;;;;;;;6255879;23;20174;-68
2022/05/09 13:46:20;;;;;;;0.00;0.00;;;;;;;;;;6240900;22;20380;-68
2022/05/09 13:48:50;;;;;;;3.92;3.83;;;;;;;;;;6256248;23;20168;-67
2022/05/09 13:51:26;;;;;;;0.05;0.05;;;;;;;;;;6240760;22;20449;-66
2022/05/09 13:53:53;;;;;;;0.00;0.00;;;;;;;;;;6256463;23;20389;-67
2022/05/09 13:56:23;;;;;;;0.03;0.03;;;;;;;;;;6241123;22;20239;-68
2022/05/09 13:58:53;;;;;;;0.00;0.00;;;;;;;;;;6256450;23;20359;-68
2022/05/09 14:01:24;;;;;;;0.00;0.00;;;;;;;;;;6241146;22;20294;-67
2022/05/09 14:03:53;;;;;;;0.00;0.00;;;;;;;;;;6257045;23;20223;-66
2022/05/09 14:06:22;;;;;;;0.10;0.10;;;;;;;;;;6240977;22;20274;-67
2022/05/09 14:08:49;;;;;;;0.00;0.00;;;;;;;;;;6256270;23;20187;-67
2022/05/09 14:11:16;;;;;;;0.00;0.00;;;;;;;;;;6240699;22;20215;-67
2022/05/09 14:13:45;;;;;;;0.00;0.00;;;;;;;;;;6255977;22;20185;-67
2022/05/09 14:16:15;;;;;;;0.00;0.00;;;;;;;;;;6240895;22;20244;-66
2022/05/09 14:18:43;;;;;;;0.00;0.00;;;;;;;;;;6256546;23;20163;-66
2022/05/09 14:21:12;;;;;;;0.00;0.00;;;;;;;;;;6241130;22;20214;-66
2022/05/09 14:23:45;;;;;;;0.00;0.00;;;;;;;;;;6256018;23;20179;-65
2022/05/09 14:31:47;;;;;;;0.00;0.00;;;;;;;;;;6240570;22;20232;-66
2022/05/09 14:34:14;;;;;;;0.00;0.00;;;;;;;;;;6256570;23;20300;-66
2022/05/09 14:36:41;;;;;;;0.00;0.00;;;;;;;;;;6239420;22;20360;-65
2022/05/09 14:39:31;;;;;;;0.00;0.00;;;;;;;;;;6256181;23;20194;-70
2022/05/09 14:42:05;;;;;;;0.00;0.00;;;;;;;;;;6187892;23;20211;-66
2022/05/09 14:44:33;;;;;;;0.00;0.00;;;;;;;;;;6225864;23;20179;-66
2022/05/09 14:47:01;;;;;;;0.00;0.00;;;;;;;;;;6232221;23;20211;-66
2022/05/09 14:49:28;;;;;;;0.00;0.00;;;;;;;;;;6256003;23;20222;-68
2022/05/09 14:51:57;;;;;;;0.00;0.00;;;;;;;;;;6238859;23;20217;-67
2022/05/09 14:54:24;;;;;;;0.00;0.00;;;;;;;;;;6255342;23;20189;-66
2022/05/09 14:59:35;;;;;;;0.00;0.00;;;;;;;;;;6254698;23;20164;-72
2022/05/09 15:02:03;;;;;;;0.00;0.00;;;;;;;;;;6238885;23;20582;-72
2022/05/09 15:04:29;;;;;;;0.00;0.00;;;;;;;;;;6254746;23;20221;-69
2022/05/09 15:06:56;;;;;;;0.00;0.00;;;;;;;;;;6238712;23;20284;-70
2022/05/09 15:09:23;;;;;;;0.00;0.00;;;;;;;;;;6255155;23;20191;-69
2022/05/09 15:11:49;;;;;;;0.00;0.00;;;;;;;;;;6238598;23;20353;-69